Terminal Aerodrome Forecast
Issued by NWS Charleston, WV

Current Version | Previous Version | Graphics & Text | Print | Product List | Glossary On
Versions: 1 2 3 4 5 6 7 8 9 10 11 12 13 14 15 16 17 18 19 20 21
000
FTUS41 KRLX 201700
TAFCRW
TAF
KCRW 201722Z 2018/2118 23016G29KT P6SM VCTS BKN040CB
     FM202100 24015G27KT 6SM SHRA BR VCTS BKN050CB
     FM202300 25013G26KT P6SM SHRA VCTS BKN050CB
     FM210300 27013G21KT P6SM BKN025
     FM210600 27008G14KT P6SM BKN035
     FM210800 24006KT P6SM SCT035=

USA.gov is the U.S. government's official web portal to all federal, state and local government web resources and services.